• Join FlightAware (Why Join?)
  • Login
  • US Flag GB Flag 
14:49 EDT


 

Airport Tracker/Info


-or-


 

Live Flight TrackerFlight Track Log ✈ DAL6048 ✈ 25-Apr-2013 ✈ KMHT - KLGA

Flight Track Log - Related Links

Times and Time Zones

All times are in EDT time to prevent confusion due to time zone crossing. See the DAL6048 flight status page for this flight to view local times or setup timezone preferences in your user account.

Time Position Orientation Groundspeed Altitude Reporting Facility
EDT Latitude Longitude Course Direction KTS MPH feet Rate Location/Type
09:36 42.9500 -71.4333 252° West 149 171 900  Level KA90
09:37 42.9608 -71.4500 312° West 161 185 1,700 2,400 Climbing Boston Center
09:38 42.9967 -71.4806 328° Northwest 177 204 4,200 2,400 Climbing Boston Center
09:39 43.0075 -71.5486 282° West 185 213 6,600 2,400 Climbing Boston Center
09:40 42.6837 -71.7291 236° Southwest  Level Estimated
09:40 43.0228 -71.6194 286° West 192 221 9,100  Level Boston Center
09:41 42.6213 -71.8020 231° Southwest  Level Estimated
09:41 42.9939 -71.6822 238° Southwest 181 208 10,600  Level Boston Center
09:42 42.5962 -71.9085 252° West  Level FlightAware Approximate
09:42 42.9381 -71.7508 222° Southwest 239 275 11,400  Level Boston Center
09:43 42.8761 -71.8281 222° Southwest 289 333 12,200 1,020 Climbing Boston Center
09:44 42.8119 -71.9108 223° Southwest 322 371 13,500 1,320 Climbing Boston Center
09:46 42.6811 -72.0731 222° Southwest 315 362 16,200 1,320 Climbing Boston Center
09:47 42.6208 -72.1467 222° Southwest 315 362 17,500 900 Climbing Boston Center
09:48 42.5606 -72.2231 223° Southwest 309 356 18,000 240 Climbing Boston Center
09:49 42.5067 -72.2936 224° Southwest 309 356 18,000  Level Boston Center
09:50 42.4419 -72.3753 223° Southwest 315 362 18,000  Level Boston Center
09:51 42.3836 -72.4625 228° Southwest 315 362 18,000 -120 Level Boston Center
09:52 42.3233 -72.5581 230° Southwest 315 362 17,800 -300 Descending Boston Center
09:53 42.2711 -72.6336 227° Southwest 315 362 17,400 -420 Descending Boston Center
09:54 42.2125 -72.7203 228° Southwest 315 362 17,000 -300 Descending Boston Center
09:55 42.1539 -72.8125 229° Southwest 315 362 16,900 -300 Descending Boston Center
09:56 42.1036 -72.8906 229° Southwest 310 357 16,500 -480 Descending Boston Center
09:57 42.0447 -72.9797 228° Southwest 315 362 16,000 -300 Descending Boston Center
09:58 41.9881 -73.0658 228° Southwest 315 362 16,000  Level Boston Center
09:59 41.9250 -73.1600 228° Southwest 315 362 16,000  Level Boston Center
10:00 41.8744 -73.2375 229° Southwest 315 362 16,000  Level Boston Center
10:01 41.8133 -73.3314 229° Southwest 310 357 16,000 -180 Level Boston Center
10:02 41.7564 -73.4114 226° Southwest 310 357 15,700 -420 Descending Boston Center
10:03 41.6994 -73.4939 227° Southwest 310 357 15,200 -540 Descending Boston Center
10:04 41.6444 -73.5764 228° Southwest 305 351 14,700 -780 Descending Boston Center
10:05 41.5500 -73.7000 224° Southwest 324 373 13,300 -1,200 Descending New York TRACON
10:06 41.4833 -73.7667 217° Southwest 322 371 11,700 -1,860 Descending New York TRACON
10:07 41.4167 -73.7833 191° South 283 326 9,800 -2,340 Descending New York TRACON
10:08 41.3333 -73.8000 189° South 259 298 7,300 -2,280 Descending New York TRACON
10:09 41.2667 -73.7333 143° Southeast 288 331 5,300 -1,200 Descending New York TRACON
10:10 41.2167 -73.6833 143° Southeast 284 327 5,000 -180 Descending New York TRACON
10:11 41.1500 -73.6167 143° Southeast 293 337 5,000 -120 Level New York TRACON
10:12 41.0667 -73.6333 189° South 276 318 4,800 -360 Descending New York TRACON
10:13 41.0000 -73.6167 169° South 281 323 4,300 -420 Descending New York TRACON
10:14 40.9167 -73.6167 180° South 279 321 4,000 -180 Descending New York TRACON
10:15 40.8500 -73.6167 180° South 271 312 4,000  Level New York TRACON
10:16 40.7833 -73.6500 201° Southwest 267 307 4,000  Level New York TRACON
10:17 40.7833 -73.7333 270° West 241 277 4,000  Level New York TRACON
10:18 40.7833 -73.8333 270° West 205 236 4,000  Level New York TRACON
10:19 40.7833 -73.8833 270° West 177 204 4,000  Level New York TRACON
10:20 40.7667 -73.9500 252° West 193 222 4,000  Level New York TRACON
10:21 40.7500 -74.0000 246° West 189 217 4,000  Level New York TRACON
10:22 40.6833 -74.0500 210° Southwest 203 234 4,000  Level New York TRACON
10:23 40.6333 -74.0667 194° South 211 243 4,000 -480 Level New York TRACON
10:24 40.6333 -74.0000 90° East 211 243 3,100 -780 Descending New York TRACON
10:25 40.6833 -73.9667 27° Northeast 175 201 2,500 -600 Descending New York TRACON